sensor_id;sensor_type;location;lat;lon;timestamp;P1;P2;P0
45871;PMS5003;32333;55.844;-3.210;2023-05-29T00:01:54;22;22;
45871;PMS5003;32333;55.844;-3.210;2023-05-29T00:04:22;24;24;
45871;PMS5003;32333;55.844;-3.210;2023-05-29T00:06:49;36;36;
45871;PMS5003;32333;55.844;-3.210;2023-05-29T00:09:17;15;15;
45871;PMS5003;32333;55.844;-3.210;2023-05-29T00:11:44;21;21;
45871;PMS5003;32333;55.844;-3.210;2023-05-29T00:14:33;24;24;
45871;PMS5003;32333;55.844;-3.210;2023-05-29T00:17:01;25;25;
45871;PMS5003;32333;55.844;-3.210;2023-05-29T00:19:31;30;30;
45871;PMS5003;32333;55.844;-3.210;2023-05-29T00:21:59;25;25;
45871;PMS5003;32333;55.844;-3.210;2023-05-29T00:24:27;34;34;
45871;PMS5003;32333;55.844;-3.210;2023-05-29T00:26:55;31;31;
45871;PMS5003;32333;55.844;-3.210;2023-05-29T00:29:22;39;39;
45871;PMS5003;32333;55.844;-3.210;2023-05-29T00:31:50;28;27;
45871;PMS5003;32333;55.844;-3.210;2023-05-29T00:34:18;82;81;
45871;PMS5003;32333;55.844;-3.210;2023-05-29T00:36:46;61;60;
45871;PMS5003;32333;55.844;-3.210;2023-05-29T00:39:13;13;12;
45871;PMS5003;32333;55.844;-3.210;2023-05-29T00:41:41;39;39;
45871;PMS5003;32333;55.844;-3.210;2023-05-29T00:44:34;37;37;
45871;PMS5003;32333;55.844;-3.210;2023-05-29T00:47:02;42;42;
45871;PMS5003;32333;55.844;-3.210;2023-05-29T00:49:31;25;25;
45871;PMS5003;32333;55.844;-3.210;2023-05-29T00:51:59;19;19;
45871;PMS5003;32333;55.844;-3.210;2023-05-29T00:54:28;24;24;
45871;PMS5003;32333;55.844;-3.210;2023-05-29T00:56:56;25;25;
45871;PMS5003;32333;55.844;-3.210;2023-05-29T00:59:25;36;35;
45871;PMS5003;32333;55.844;-3.210;2023-05-29T01:01:56;32;29;
45871;PMS5003;32333;55.844;-3.210;2023-05-29T01:04:25;46;43;
45871;PMS5003;32333;55.844;-3.210;2023-05-29T01:06:53;31;31;
45871;PMS5003;32333;55.844;-3.210;2023-05-29T01:09:21;45;45;
45871;PMS5003;32333;55.844;-3.210;2023-05-29T01:11:50;66;64;
45871;PMS5003;32333;55.844;-3.210;2023-05-29T01:14:36;31;31;
45871;PMS5003;32333;55.844;-3.210;2023-05-29T01:17:13;31;31;
45871;PMS5003;32333;55.844;-3.210;2023-05-29T01:19:57;34;34;
45871;PMS5003;32333;55.844;-3.210;2023-05-29T01:22:35;31;31;
45871;PMS5003;32333;55.844;-3.210;2023-05-29T01:25:29;39;39;
45871;PMS5003;32333;55.844;-3.210;2023-05-29T01:28:07;30;30;
45871;PMS5003;32333;55.844;-3.210;2023-05-29T01:30:40;24;24;
45871;PMS5003;32333;55.844;-3.210;2023-05-29T01:33:09;21;21;
45871;PMS5003;32333;55.844;-3.210;2023-05-29T01:35:37;30;30;
45871;PMS5003;32333;55.844;-3.210;2023-05-29T01:38:06;24;24;
45871;PMS5003;32333;55.844;-3.210;2023-05-29T01:40:33;24;24;
45871;PMS5003;32333;55.844;-3.210;2023-05-29T01:44:35;25;25;
45871;PMS5003;32333;55.844;-3.210;2023-05-29T01:47:05;31;31;
45871;PMS5003;32333;55.844;-3.210;2023-05-29T01:49:34;54;54;
45871;PMS5003;32333;55.844;-3.210;2023-05-29T01:52:04;82;82;
45871;PMS5003;32333;55.844;-3.210;2023-05-29T01:54:33;51;51;
45871;PMS5003;32333;55.844;-3.210;2023-05-29T01:57:01;37;37;
45871;PMS5003;32333;55.844;-3.210;2023-05-29T01:59:30;60;60;
45871;PMS5003;32333;55.844;-3.210;2023-05-29T02:01:58;72;72;
45871;PMS5003;32333;55.844;-3.210;2023-05-29T02:04:32;61;61;
45871;PMS5003;32333;55.844;-3.210;2023-05-29T02:07:00;67;67;
45871;PMS5003;32333;55.844;-3.210;2023-05-29T02:09:29;76;76;
45871;PMS5003;32333;55.844;-3.210;2023-05-29T02:11:56;75;75;
45871;PMS5003;32333;55.844;-3.210;2023-05-29T02:14:34;73;73;
45871;PMS5003;32333;55.844;-3.210;2023-05-29T02:17:02;39;39;
45871;PMS5003;32333;55.844;-3.210;2023-05-29T02:19:29;0;0;
45871;PMS5003;32333;55.844;-3.210;2023-05-29T02:21:57;0;0;
45871;PMS5003;32333;55.844;-3.210;2023-05-29T02:24:24;0;0;
45871;PMS5003;32333;55.844;-3.210;2023-05-29T02:26:53;0;0;
45871;PMS5003;32333;55.844;-3.210;2023-05-29T02:29:20;0;0;
45871;PMS5003;32333;55.844;-3.210;2023-05-29T02:31:47;0;0;
45871;PMS5003;32333;55.844;-3.210;2023-05-29T02:34:16;0;0;
45871;PMS5003;32333;55.844;-3.210;2023-05-29T02:36:43;0;0;
45871;PMS5003;32333;55.844;-3.210;2023-05-29T02:39:11;0;0;
45871;PMS5003;32333;55.844;-3.210;2023-05-29T02:41:38;0;0;
45871;PMS5003;32333;55.844;-3.210;2023-05-29T02:44:35;0;0;
45871;PMS5003;32333;55.844;-3.210;2023-05-29T02:47:02;0;0;
45871;PMS5003;32333;55.844;-3.210;2023-05-29T02:49:30;0;0;
45871;PMS5003;32333;55.844;-3.210;2023-05-29T02:51:58;0;0;
45871;PMS5003;32333;55.844;-3.210;2023-05-29T02:54:25;0;0;
45871;PMS5003;32333;55.844;-3.210;2023-05-29T02:56:53;0;0;
45871;PMS5003;32333;55.844;-3.210;2023-05-29T02:59:20;0;0;
45871;PMS5003;32333;55.844;-3.210;2023-05-29T03:01:48;0;0;
45871;PMS5003;32333;55.844;-3.210;2023-05-29T03:04:16;0;0;
45871;PMS5003;32333;55.844;-3.210;2023-05-29T03:06:44;0;0;
45871;PMS5003;32333;55.844;-3.210;2023-05-29T03:09:12;1;1;
45871;PMS5003;32333;55.844;-3.210;2023-05-29T03:11:40;0;0;
45871;PMS5003;32333;55.844;-3.210;2023-05-29T03:14:35;0;0;
45871;PMS5003;32333;55.844;-3.210;2023-05-29T03:17:03;0;0;
45871;PMS5003;32333;55.844;-3.210;2023-05-29T03:19:32;0;0;
45871;PMS5003;32333;55.844;-3.210;2023-05-29T03:22:00;0;0;
45871;PMS5003;32333;55.844;-3.210;2023-05-29T03:24:27;0;0;
45871;PMS5003;32333;55.844;-3.210;2023-05-29T03:26:55;1;0;
45871;PMS5003;32333;55.844;-3.210;2023-05-29T03:29:23;0;0;
45871;PMS5003;32333;55.844;-3.210;2023-05-29T03:31:51;0;0;
45871;PMS5003;32333;55.844;-3.210;2023-05-29T03:34:18;0;0;
45871;PMS5003;32333;55.844;-3.210;2023-05-29T03:36:46;0;0;
45871;PMS5003;32333;55.844;-3.210;2023-05-29T03:39:13;0;0;
45871;PMS5003;32333;55.844;-3.210;2023-05-29T03:41:41;0;0;
45871;PMS5003;32333;55.844;-3.210;2023-05-29T03:44:35;0;0;
45871;PMS5003;32333;55.844;-3.210;2023-05-29T03:47:02;0;0;
45871;PMS5003;32333;55.844;-3.210;2023-05-29T03:49:30;0;0;
45871;PMS5003;32333;55.844;-3.210;2023-05-29T03:51:59;0;0;
45871;PMS5003;32333;55.844;-3.210;2023-05-29T03:54:26;0;0;
45871;PMS5003;32333;55.844;-3.210;2023-05-29T03:56:54;0;0;
45871;PMS5003;32333;55.844;-3.210;2023-05-29T03:59:21;0;0;
45871;PMS5003;32333;55.844;-3.210;2023-05-29T04:01:49;0;0;
45871;PMS5003;32333;55.844;-3.210;2023-05-29T04:04:17;0;0;
45871;PMS5003;32333;55.844;-3.210;2023-05-29T04:06:44;0;0;
45871;PMS5003;32333;55.844;-3.210;2023-05-29T04:09:12;0;0;
45871;PMS5003;32333;55.844;-3.210;2023-05-29T04:11:40;0;0;
45871;PMS5003;32333;55.844;-3.210;2023-05-29T04:14:36;0;0;
45871;PMS5003;32333;55.844;-3.210;2023-05-29T04:17:04;0;0;
45871;PMS5003;32333;55.844;-3.210;2023-05-29T04:19:31;0;0;
45871;PMS5003;32333;55.844;-3.210;2023-05-29T04:22:00;0;0;
45871;PMS5003;32333;55.844;-3.210;2023-05-29T04:24:27;0;0;
45871;PMS5003;32333;55.844;-3.210;2023-05-29T04:26:55;0;0;
45871;PMS5003;32333;55.844;-3.210;2023-05-29T04:29:23;0;0;
45871;PMS5003;32333;55.844;-3.210;2023-05-29T04:31:51;0;0;
45871;PMS5003;32333;55.844;-3.210;2023-05-29T04:34:18;0;0;
45871;PMS5003;32333;55.844;-3.210;2023-05-29T04:36:48;0;0;
45871;PMS5003;32333;55.844;-3.210;2023-05-29T04:39:15;0;0;
45871;PMS5003;32333;55.844;-3.210;2023-05-29T04:41:43;0;0;
45871;PMS5003;32333;55.844;-3.210;2023-05-29T04:44:35;0;0;
45871;PMS5003;32333;55.844;-3.210;2023-05-29T04:47:02;0;0;
45871;PMS5003;32333;55.844;-3.210;2023-05-29T04:49:30;0;0;
45871;PMS5003;32333;55.844;-3.210;2023-05-29T04:51:59;0;0;
45871;PMS5003;32333;55.844;-3.210;2023-05-29T04:54:26;0;0;
45871;PMS5003;32333;55.844;-3.210;2023-05-29T04:56:54;0;0;
45871;PMS5003;32333;55.844;-3.210;2023-05-29T04:59:22;0;0;
45871;PMS5003;32333;55.844;-3.210;2023-05-29T05:01:50;0;0;
45871;PMS5003;32333;55.844;-3.210;2023-05-29T05:04:18;0;0;
45871;PMS5003;32333;55.844;-3.210;2023-05-29T05:06:46;0;0;
45871;PMS5003;32333;55.844;-3.210;2023-05-29T05:09:14;0;0;
45871;PMS5003;32333;55.844;-3.210;2023-05-29T05:11:41;0;0;
45871;PMS5003;32333;55.844;-3.210;2023-05-29T05:14:35;0;0;
45871;PMS5003;32333;55.844;-3.210;2023-05-29T05:17:02;0;0;
45871;PMS5003;32333;55.844;-3.210;2023-05-29T05:19:30;0;0;
45871;PMS5003;32333;55.844;-3.210;2023-05-29T05:21:58;0;0;
45871;PMS5003;32333;55.844;-3.210;2023-05-29T05:24:26;0;0;
45871;PMS5003;32333;55.844;-3.210;2023-05-29T05:26:53;0;0;
45871;PMS5003;32333;55.844;-3.210;2023-05-29T05:29:20;0;0;
45871;PMS5003;32333;55.844;-3.210;2023-05-29T05:31:49;19;19;
45871;PMS5003;32333;55.844;-3.210;2023-05-29T05:34:17;78;78;
45871;PMS5003;32333;55.844;-3.210;2023-05-29T05:36:44;91;91;
45871;PMS5003;32333;55.844;-3.210;2023-05-29T05:39:12;85;85;
45871;PMS5003;32333;55.844;-3.210;2023-05-29T05:41:39;55;55;
45871;PMS5003;32333;55.844;-3.210;2023-05-29T05:44:36;39;39;
45871;PMS5003;32333;55.844;-3.210;2023-05-29T05:47:03;42;42;
45871;PMS5003;32333;55.844;-3.210;2023-05-29T05:49:31;30;30;
45871;PMS5003;32333;55.844;-3.210;2023-05-29T05:52:00;37;37;
45871;PMS5003;32333;55.844;-3.210;2023-05-29T05:54:27;42;42;
45871;PMS5003;32333;55.844;-3.210;2023-05-29T05:56:54;3;3;
45871;PMS5003;32333;55.844;-3.210;2023-05-29T05:59:22;30;30;
45871;PMS5003;32333;55.844;-3.210;2023-05-29T06:01:49;34;34;
45871;PMS5003;32333;55.844;-3.210;2023-05-29T06:04:17;36;36;
45871;PMS5003;32333;55.844;-3.210;2023-05-29T06:06:44;28;28;
45871;PMS5003;32333;55.844;-3.210;2023-05-29T06:09:13;15;15;
45871;PMS5003;32333;55.844;-3.210;2023-05-29T06:11:40;7;7;
45871;PMS5003;32333;55.844;-3.210;2023-05-29T06:14:35;0;0;
45871;PMS5003;32333;55.844;-3.210;2023-05-29T06:17:03;3;0;
45871;PMS5003;32333;55.844;-3.210;2023-05-29T06:19:31;0;0;
45871;PMS5003;32333;55.844;-3.210;2023-05-29T06:22:00;0;0;
45871;PMS5003;32333;55.844;-3.210;2023-05-29T06:24:27;0;0;
45871;PMS5003;32333;55.844;-3.210;2023-05-29T06:26:54;0;0;
45871;PMS5003;32333;55.844;-3.210;2023-05-29T06:29:24;0;0;
45871;PMS5003;32333;55.844;-3.210;2023-05-29T06:31:54;0;0;
45871;PMS5003;32333;55.844;-3.210;2023-05-29T06:34:25;0;0;
45871;PMS5003;32333;55.844;-3.210;2023-05-29T06:36:53;0;0;
45871;PMS5003;32333;55.844;-3.210;2023-05-29T06:39:21;0;0;
45871;PMS5003;32333;55.844;-3.210;2023-05-29T06:41:49;0;0;
45871;PMS5003;32333;55.844;-3.210;2023-05-29T06:44:35;0;0;
45871;PMS5003;32333;55.844;-3.210;2023-05-29T06:47:05;1;1;
45871;PMS5003;32333;55.844;-3.210;2023-05-29T06:49:33;0;0;
45871;PMS5003;32333;55.844;-3.210;2023-05-29T06:52:00;1;0;
45871;PMS5003;32333;55.844;-3.210;2023-05-29T06:54:28;0;0;
45871;PMS5003;32333;55.844;-3.210;2023-05-29T06:56:57;0;0;
45871;PMS5003;32333;55.844;-3.210;2023-05-29T06:59:28;0;0;
45871;PMS5003;32333;55.844;-3.210;2023-05-29T07:01:57;1;1;
45871;PMS5003;32333;55.844;-3.210;2023-05-29T07:04:25;0;0;
45871;PMS5003;32333;55.844;-3.210;2023-05-29T07:06:54;0;0;
45871;PMS5003;32333;55.844;-3.210;2023-05-29T07:09:22;0;0;
45871;PMS5003;32333;55.844;-3.210;2023-05-29T07:11:52;0;0;
45871;PMS5003;32333;55.844;-3.210;2023-05-29T07:14:35;1;1;
45871;PMS5003;32333;55.844;-3.210;2023-05-29T07:17:03;0;0;
45871;PMS5003;32333;55.844;-3.210;2023-05-29T07:19:31;0;0;
45871;PMS5003;32333;55.844;-3.210;2023-05-29T07:21:58;0;0;
45871;PMS5003;32333;55.844;-3.210;2023-05-29T07:24:26;0;0;
45871;PMS5003;32333;55.844;-3.210;2023-05-29T07:26:53;0;0;
45871;PMS5003;32333;55.844;-3.210;2023-05-29T07:29:21;0;0;
45871;PMS5003;32333;55.844;-3.210;2023-05-29T07:31:49;1;1;
45871;PMS5003;32333;55.844;-3.210;2023-05-29T07:34:17;0;0;
45871;PMS5003;32333;55.844;-3.210;2023-05-29T07:37:01;0;0;
45871;PMS5003;32333;55.844;-3.210;2023-05-29T07:39:30;0;0;
45871;PMS5003;32333;55.844;-3.210;2023-05-29T07:41:58;0;0;
45871;PMS5003;32333;55.844;-3.210;2023-05-29T07:44:35;0;0;
45871;PMS5003;32333;55.844;-3.210;2023-05-29T07:47:02;0;0;
45871;PMS5003;32333;55.844;-3.210;2023-05-29T07:49:30;0;0;
45871;PMS5003;32333;55.844;-3.210;2023-05-29T07:51:58;0;0;
45871;PMS5003;32333;55.844;-3.210;2023-05-29T07:54:26;0;0;
45871;PMS5003;32333;55.844;-3.210;2023-05-29T07:56:54;0;0;
45871;PMS5003;32333;55.844;-3.210;2023-05-29T07:59:21;0;0;
45871;PMS5003;32333;55.844;-3.210;2023-05-29T08:01:49;0;0;
45871;PMS5003;32333;55.844;-3.210;2023-05-29T08:04:18;0;0;
45871;PMS5003;32333;55.844;-3.210;2023-05-29T08:06:46;0;0;
45871;PMS5003;32333;55.844;-3.210;2023-05-29T08:09:13;0;0;
45871;PMS5003;32333;55.844;-3.210;2023-05-29T08:11:42;18;18;
45871;PMS5003;32333;55.844;-3.210;2023-05-29T08:14:34;0;0;
45871;PMS5003;32333;55.844;-3.210;2023-05-29T08:17:02;0;0;
45871;PMS5003;32333;55.844;-3.210;2023-05-29T08:19:36;0;0;
45871;PMS5003;32333;55.844;-3.210;2023-05-29T08:22:03;0;0;
45871;PMS5003;32333;55.844;-3.210;2023-05-29T08:25:04;1;0;
45871;PMS5003;32333;55.844;-3.210;2023-05-29T08:27:35;0;0;
45871;PMS5003;32333;55.844;-3.210;2023-05-29T08:30:03;0;0;
45871;PMS5003;32333;55.844;-3.210;2023-05-29T08:32:30;0;0;
45871;PMS5003;32333;55.844;-3.210;2023-05-29T08:34:58;0;0;
45871;PMS5003;32333;55.844;-3.210;2023-05-29T08:37:25;0;0;
45871;PMS5003;32333;55.844;-3.210;2023-05-29T08:39:53;0;0;
45871;PMS5003;32333;55.844;-3.210;2023-05-29T08:44:35;0;0;
45871;PMS5003;32333;55.844;-3.210;2023-05-29T08:47:06;0;0;
45871;PMS5003;32333;55.844;-3.210;2023-05-29T08:49:37;0;0;
45871;PMS5003;32333;55.844;-3.210;2023-05-29T08:52:09;0;0;
45871;PMS5003;32333;55.844;-3.210;2023-05-29T08:54:41;0;0;
45871;PMS5003;32333;55.844;-3.210;2023-05-29T08:57:10;0;0;
45871;PMS5003;32333;55.844;-3.210;2023-05-29T08:59:41;0;0;
45871;PMS5003;32333;55.844;-3.210;2023-05-29T09:02:10;0;0;
45871;PMS5003;32333;55.844;-3.210;2023-05-29T09:04:41;0;0;
45871;PMS5003;32333;55.844;-3.210;2023-05-29T09:07:09;1;0;
45871;PMS5003;32333;55.844;-3.210;2023-05-29T09:09:38;0;0;
45871;PMS5003;32333;55.844;-3.210;2023-05-29T09:14:35;0;0;
45871;PMS5003;32333;55.844;-3.210;2023-05-29T09:17:05;0;0;
45871;PMS5003;32333;55.844;-3.210;2023-05-29T09:19:33;0;0;
45871;PMS5003;32333;55.844;-3.210;2023-05-29T09:22:02;0;0;
45871;PMS5003;32333;55.844;-3.210;2023-05-29T09:24:32;0;0;
45871;PMS5003;32333;55.844;-3.210;2023-05-29T09:27:00;0;0;
45871;PMS5003;32333;55.844;-3.210;2023-05-29T09:29:30;0;0;
45871;PMS5003;32333;55.844;-3.210;2023-05-29T09:31:58;1;1;
45871;PMS5003;32333;55.844;-3.210;2023-05-29T09:34:25;0;0;
45871;PMS5003;32333;55.844;-3.210;2023-05-29T09:36:53;0;0;
45871;PMS5003;32333;55.844;-3.210;2023-05-29T09:39:27;0;0;
45871;PMS5003;32333;55.844;-3.210;2023-05-29T09:41:54;0;0;
45871;PMS5003;32333;55.844;-3.210;2023-05-29T09:44:35;0;0;
45871;PMS5003;32333;55.844;-3.210;2023-05-29T09:47:03;1;1;
45871;PMS5003;32333;55.844;-3.210;2023-05-29T09:49:32;0;0;
45871;PMS5003;32333;55.844;-3.210;2023-05-29T09:52:00;0;0;
45871;PMS5003;32333;55.844;-3.210;2023-05-29T09:54:27;0;0;
45871;PMS5003;32333;55.844;-3.210;2023-05-29T09:56:56;0;0;
45871;PMS5003;32333;55.844;-3.210;2023-05-29T09:59:25;0;0;
45871;PMS5003;32333;55.844;-3.210;2023-05-29T10:01:59;0;0;
45871;PMS5003;32333;55.844;-3.210;2023-05-29T10:04:29;1;0;
45871;PMS5003;32333;55.844;-3.210;2023-05-29T10:06:56;1;1;
45871;PMS5003;32333;55.844;-3.210;2023-05-29T10:09:27;0;0;
45871;PMS5003;32333;55.844;-3.210;2023-05-29T10:11:55;0;0;
45871;PMS5003;32333;55.844;-3.210;2023-05-29T10:14:35;96;96;
45871;PMS5003;32333;55.844;-3.210;2023-05-29T10:17:05;57;57;
45871;PMS5003;32333;55.844;-3.210;2023-05-29T10:19:36;43;43;
45871;PMS5003;32333;55.844;-3.210;2023-05-29T10:22:05;21;21;
45871;PMS5003;32333;55.844;-3.210;2023-05-29T10:24:34;16;16;
45871;PMS5003;32333;55.844;-3.210;2023-05-29T10:27:04;27;27;
45871;PMS5003;32333;55.844;-3.210;2023-05-29T10:29:34;36;34;
45871;PMS5003;32333;55.844;-3.210;2023-05-29T10:32:20;27;27;
45871;PMS5003;32333;55.844;-3.210;2023-05-29T10:34:55;0;0;
45871;PMS5003;32333;55.844;-3.210;2023-05-29T10:37:31;0;0;
45871;PMS5003;32333;55.844;-3.210;2023-05-29T10:40:04;0;0;
45871;PMS5003;32333;55.844;-3.210;2023-05-29T10:44:38;0;0;
45871;PMS5003;32333;55.844;-3.210;2023-05-29T10:47:07;0;0;
45871;PMS5003;32333;55.844;-3.210;2023-05-29T10:49:35;16;16;
45871;PMS5003;32333;55.844;-3.210;2023-05-29T10:52:03;12;12;
45871;PMS5003;32333;55.844;-3.210;2023-05-29T10:54:40;15;15;
45871;PMS5003;32333;55.844;-3.210;2023-05-29T10:57:17;1;1;
45871;PMS5003;32333;55.844;-3.210;2023-05-29T10:59:45;0;0;
45871;PMS5003;32333;55.844;-3.210;2023-05-29T11:02:17;0;0;
45871;PMS5003;32333;55.844;-3.210;2023-05-29T11:04:45;0;0;
45871;PMS5003;32333;55.844;-3.210;2023-05-29T11:07:33;0;0;
45871;PMS5003;32333;55.844;-3.210;2023-05-29T11:10:16;9;9;
45871;PMS5003;32333;55.844;-3.210;2023-05-29T11:14:44;0;0;
45871;PMS5003;32333;55.844;-3.210;2023-05-29T11:17:28;0;0;
45871;PMS5003;32333;55.844;-3.210;2023-05-29T11:20:00;0;0;
45871;PMS5003;32333;55.844;-3.210;2023-05-29T11:22:32;0;0;
45871;PMS5003;32333;55.844;-3.210;2023-05-29T11:25:12;0;0;
45871;PMS5003;32333;55.844;-3.210;2023-05-29T11:27:41;0;0;
45871;PMS5003;32333;55.844;-3.210;2023-05-29T11:30:11;1;1;
45871;PMS5003;32333;55.844;-3.210;2023-05-29T11:32:39;7;7;
45871;PMS5003;32333;55.844;-3.210;2023-05-29T11:35:10;0;0;
45871;PMS5003;32333;55.844;-3.210;2023-05-29T11:37:40;0;0;
45871;PMS5003;32333;55.844;-3.210;2023-05-29T11:40:09;1;0;
45871;PMS5003;32333;55.844;-3.210;2023-05-29T11:44:34;0;0;
45871;PMS5003;32333;55.844;-3.210;2023-05-29T11:47:04;1;1;
45871;PMS5003;32333;55.844;-3.210;2023-05-29T11:49:33;1;1;
45871;PMS5003;32333;55.844;-3.210;2023-05-29T11:52:09;1;1;
45871;PMS5003;32333;55.844;-3.210;2023-05-29T11:54:37;1;1;
45871;PMS5003;32333;55.844;-3.210;2023-05-29T11:57:05;12;12;
45871;PMS5003;32333;55.844;-3.210;2023-05-29T11:59:33;40;40;
45871;PMS5003;32333;55.844;-3.210;2023-05-29T12:02:01;30;30;
45871;PMS5003;32333;55.844;-3.210;2023-05-29T12:04:30;18;18;
45871;PMS5003;32333;55.844;-3.210;2023-05-29T12:06:58;39;39;
45871;PMS5003;32333;55.844;-3.210;2023-05-29T12:09:26;61;61;
45871;PMS5003;32333;55.844;-3.210;2023-05-29T12:12:00;30;30;
45871;PMS5003;32333;55.844;-3.210;2023-05-29T12:14:35;9;9;
45871;PMS5003;32333;55.844;-3.210;2023-05-29T12:17:02;9;9;
45871;PMS5003;32333;55.844;-3.210;2023-05-29T12:19:31;27;27;
45871;PMS5003;32333;55.844;-3.210;2023-05-29T12:21:59;27;27;
45871;PMS5003;32333;55.844;-3.210;2023-05-29T12:24:27;33;33;
45871;PMS5003;32333;55.844;-3.210;2023-05-29T12:26:55;33;33;
45871;PMS5003;32333;55.844;-3.210;2023-05-29T12:29:29;22;22;
45871;PMS5003;32333;55.844;-3.210;2023-05-29T12:31:57;27;27;
45871;PMS5003;32333;55.844;-3.210;2023-05-29T12:34:24;31;31;
45871;PMS5003;32333;55.844;-3.210;2023-05-29T12:36:52;36;36;
45871;PMS5003;32333;55.844;-3.210;2023-05-29T12:39:20;27;27;
45871;PMS5003;32333;55.844;-3.210;2023-05-29T12:41:48;45;45;
45871;PMS5003;32333;55.844;-3.210;2023-05-29T12:44:34;76;75;
45871;PMS5003;32333;55.844;-3.210;2023-05-29T12:47:04;55;55;
45871;PMS5003;32333;55.844;-3.210;2023-05-29T12:49:35;51;51;
45871;PMS5003;32333;55.844;-3.210;2023-05-29T12:52:05;27;27;
45871;PMS5003;32333;55.844;-3.210;2023-05-29T12:54:34;0;0;
45871;PMS5003;32333;55.844;-3.210;2023-05-29T12:57:01;0;0;
45871;PMS5003;32333;55.844;-3.210;2023-05-29T12:59:29;0;0;
45871;PMS5003;32333;55.844;-3.210;2023-05-29T13:02:04;0;0;
45871;PMS5003;32333;55.844;-3.210;2023-05-29T13:04:33;0;0;
45871;PMS5003;32333;55.844;-3.210;2023-05-29T13:07:00;0;0;
45871;PMS5003;32333;55.844;-3.210;2023-05-29T13:09:28;0;0;
45871;PMS5003;32333;55.844;-3.210;2023-05-29T13:11:55;0;0;
45871;PMS5003;32333;55.844;-3.210;2023-05-29T13:14:35;0;0;
45871;PMS5003;32333;55.844;-3.210;2023-05-29T13:17:03;0;0;
45871;PMS5003;32333;55.844;-3.210;2023-05-29T13:19:30;0;0;
45871;PMS5003;32333;55.844;-3.210;2023-05-29T13:21:58;0;0;
45871;PMS5003;32333;55.844;-3.210;2023-05-29T13:24:25;0;0;
45871;PMS5003;32333;55.844;-3.210;2023-05-29T13:26:52;0;0;
45871;PMS5003;32333;55.844;-3.210;2023-05-29T13:29:20;0;0;
45871;PMS5003;32333;55.844;-3.210;2023-05-29T13:31:47;0;0;
45871;PMS5003;32333;55.844;-3.210;2023-05-29T13:34:14;0;0;
45871;PMS5003;32333;55.844;-3.210;2023-05-29T13:36:43;0;0;
45871;PMS5003;32333;55.844;-3.210;2023-05-29T13:39:11;0;0;
45871;PMS5003;32333;55.844;-3.210;2023-05-29T13:41:38;0;0;
45871;PMS5003;32333;55.844;-3.210;2023-05-29T13:44:34;15;15;
45871;PMS5003;32333;55.844;-3.210;2023-05-29T13:47:04;0;0;
45871;PMS5003;32333;55.844;-3.210;2023-05-29T13:49:33;0;0;
45871;PMS5003;32333;55.844;-3.210;2023-05-29T13:52:00;0;0;
45871;PMS5003;32333;55.844;-3.210;2023-05-29T13:54:28;0;0;
45871;PMS5003;32333;55.844;-3.210;2023-05-29T13:56:55;7;7;
45871;PMS5003;32333;55.844;-3.210;2023-05-29T13:59:23;8;8;
45871;PMS5003;32333;55.844;-3.210;2023-05-29T14:01:51;6;6;
45871;PMS5003;32333;55.844;-3.210;2023-05-29T14:04:18;11;8;
45871;PMS5003;32333;55.844;-3.210;2023-05-29T14:06:46;5;5;
45871;PMS5003;32333;55.844;-3.210;2023-05-29T14:09:14;7;6;
45871;PMS5003;32333;55.844;-3.210;2023-05-29T14:11:42;7;7;
45871;PMS5003;32333;55.844;-3.210;2023-05-29T14:14:33;11;9;
45871;PMS5003;32333;55.844;-3.210;2023-05-29T14:17:02;29;28;
45871;PMS5003;32333;55.844;-3.210;2023-05-29T14:19:30;18;17;
45871;PMS5003;32333;55.844;-3.210;2023-05-29T14:21:58;14;14;
45871;PMS5003;32333;55.844;-3.210;2023-05-29T14:24:26;16;15;
45871;PMS5003;32333;55.844;-3.210;2023-05-29T14:26:54;18;17;
45871;PMS5003;32333;55.844;-3.210;2023-05-29T14:29:22;18;17;
45871;PMS5003;32333;55.844;-3.210;2023-05-29T14:31:50;17;16;
45871;PMS5003;32333;55.844;-3.210;2023-05-29T14:34:17;18;17;
45871;PMS5003;32333;55.844;-3.210;2023-05-29T14:36:45;15;13;
45871;PMS5003;32333;55.844;-3.210;2023-05-29T14:39:13;17;17;
45871;PMS5003;32333;55.844;-3.210;2023-05-29T14:41:40;15;14;
45871;PMS5003;32333;55.844;-3.210;2023-05-29T14:44:34;14;13;
45871;PMS5003;32333;55.844;-3.210;2023-05-29T14:47:02;13;13;
45871;PMS5003;32333;55.844;-3.210;2023-05-29T14:49:30;4;3;
45871;PMS5003;32333;55.844;-3.210;2023-05-29T14:51:57;5;5;
45871;PMS5003;32333;55.844;-3.210;2023-05-29T14:54:25;7;5;
45871;PMS5003;32333;55.844;-3.210;2023-05-29T14:56:53;6;5;
45871;PMS5003;32333;55.844;-3.210;2023-05-29T14:59:20;8;6;
45871;PMS5003;32333;55.844;-3.210;2023-05-29T15:01:48;4;4;
45871;PMS5003;32333;55.844;-3.210;2023-05-29T15:04:16;7;7;
45871;PMS5003;32333;55.844;-3.210;2023-05-29T15:06:43;7;6;
45871;PMS5003;32333;55.844;-3.210;2023-05-29T15:09:11;6;5;
45871;PMS5003;32333;55.844;-3.210;2023-05-29T15:11:38;5;5;
45871;PMS5003;32333;55.844;-3.210;2023-05-29T15:14:35;0;0;
45871;PMS5003;32333;55.844;-3.210;2023-05-29T15:17:03;0;0;
45871;PMS5003;32333;55.844;-3.210;2023-05-29T15:19:30;0;0;
45871;PMS5003;32333;55.844;-3.210;2023-05-29T15:21:58;0;0;
45871;PMS5003;32333;55.844;-3.210;2023-05-29T15:24:25;0;0;
45871;PMS5003;32333;55.844;-3.210;2023-05-29T15:26:52;1;1;
45871;PMS5003;32333;55.844;-3.210;2023-05-29T15:29:20;1;0;
45871;PMS5003;32333;55.844;-3.210;2023-05-29T15:31:47;9;9;
45871;PMS5003;32333;55.844;-3.210;2023-05-29T15:34:14;0;0;
45871;PMS5003;32333;55.844;-3.210;2023-05-29T15:36:41;0;0;
45871;PMS5003;32333;55.844;-3.210;2023-05-29T15:39:09;0;0;
45871;PMS5003;32333;55.844;-3.210;2023-05-29T15:41:37;0;0;
45871;PMS5003;32333;55.844;-3.210;2023-05-29T15:44:35;0;0;
45871;PMS5003;32333;55.844;-3.210;2023-05-29T15:47:03;1;1;
45871;PMS5003;32333;55.844;-3.210;2023-05-29T15:49:31;0;0;
45871;PMS5003;32333;55.844;-3.210;2023-05-29T15:51:58;0;0;
45871;PMS5003;32333;55.844;-3.210;2023-05-29T15:54:25;0;0;
45871;PMS5003;32333;55.844;-3.210;2023-05-29T15:56:52;0;0;
45871;PMS5003;32333;55.844;-3.210;2023-05-29T15:59:20;0;0;
45871;PMS5003;32333;55.844;-3.210;2023-05-29T16:01:48;0;0;
45871;PMS5003;32333;55.844;-3.210;2023-05-29T16:04:16;0;0;
45871;PMS5003;32333;55.844;-3.210;2023-05-29T16:06:44;0;0;
45871;PMS5003;32333;55.844;-3.210;2023-05-29T16:09:13;0;0;
45871;PMS5003;32333;55.844;-3.210;2023-05-29T16:11:42;0;0;
45871;PMS5003;32333;55.844;-3.210;2023-05-29T16:14:35;0;0;
45871;PMS5003;32333;55.844;-3.210;2023-05-29T16:17:02;0;0;
45871;PMS5003;32333;55.844;-3.210;2023-05-29T16:19:30;0;0;
45871;PMS5003;32333;55.844;-3.210;2023-05-29T16:21:58;1;1;
45871;PMS5003;32333;55.844;-3.210;2023-05-29T16:24:25;0;0;
45871;PMS5003;32333;55.844;-3.210;2023-05-29T16:26:53;0;0;
45871;PMS5003;32333;55.844;-3.210;2023-05-29T16:29:21;0;0;
45871;PMS5003;32333;55.844;-3.210;2023-05-29T16:31:48;1;1;
45871;PMS5003;32333;55.844;-3.210;2023-05-29T16:34:16;0;0;
45871;PMS5003;32333;55.844;-3.210;2023-05-29T16:36:45;0;0;
45871;PMS5003;32333;55.844;-3.210;2023-05-29T16:39:14;0;0;
45871;PMS5003;32333;55.844;-3.210;2023-05-29T16:41:44;0;0;
45871;PMS5003;32333;55.844;-3.210;2023-05-29T16:44:34;0;0;
45871;PMS5003;32333;55.844;-3.210;2023-05-29T16:47:01;0;0;
45871;PMS5003;32333;55.844;-3.210;2023-05-29T16:49:29;0;0;
45871;PMS5003;32333;55.844;-3.210;2023-05-29T16:51:57;0;0;
45871;PMS5003;32333;55.844;-3.210;2023-05-29T16:54:24;1;0;
45871;PMS5003;32333;55.844;-3.210;2023-05-29T16:56:53;0;0;